createdAt,value
2023-05-09T00:01:24.601Z,14.80
2023-05-09T00:03:52.155Z,15.80
2023-05-09T00:10:37.922Z,16.67
2023-05-09T00:13:04.409Z,18.30
2023-05-09T00:15:31.978Z,15.00
2023-05-09T00:17:58.707Z,13.00
2023-05-09T00:20:25.260Z,15.67
2023-05-09T00:22:52.273Z,14.30
2023-05-09T00:25:18.748Z,12.77
2023-05-09T00:27:45.234Z,13.97
2023-05-09T00:30:11.862Z,13.80
2023-05-09T00:32:40.166Z,14.00
2023-05-09T00:35:07.997Z,13.70
2023-05-09T00:37:34.517Z,14.80
2023-05-09T00:40:00.946Z,13.57
2023-05-09T00:42:27.511Z,15.37
2023-05-09T00:44:54.011Z,13.83
2023-05-09T00:47:23.043Z,16.93
2023-05-09T00:49:50.337Z,13.80
2023-05-09T00:52:17.561Z,14.60
2023-05-09T00:54:44.027Z,12.60
2023-05-09T00:57:10.540Z,14.90
2023-05-09T00:59:37.376Z,15.20
2023-05-09T01:02:03.832Z,14.87
2023-05-09T01:04:30.411Z,15.60
2023-05-09T01:07:16.818Z,16.10
2023-05-09T01:09:52.355Z,17.60
2023-05-09T01:12:45.020Z,15.83
2023-05-09T01:15:17.538Z,15.43
2023-05-09T01:17:53.655Z,14.23
2023-05-09T01:20:33.428Z,17.07
2023-05-09T01:23:38.859Z,15.53
2023-05-09T01:26:10.601Z,14.47
2023-05-09T01:28:40.049Z,23.60
2023-05-09T01:31:08.990Z,18.10
2023-05-09T01:33:39.581Z,15.47
2023-05-09T01:36:12.085Z,14.53
2023-05-09T01:38:42.165Z,15.77
2023-05-09T01:41:12.043Z,16.37
2023-05-09T01:43:39.358Z,18.30
2023-05-09T01:46:07.392Z,16.80
2023-05-09T01:48:36.749Z,16.30
2023-05-09T01:51:05.509Z,17.67
2023-05-09T01:53:34.352Z,19.20
2023-05-09T01:56:04.001Z,18.23
2023-05-09T01:58:33.567Z,17.00
2023-05-09T02:01:01.333Z,14.50
2023-05-09T02:03:28.606Z,16.33
2023-05-09T02:05:56.441Z,23.00
2023-05-09T02:08:23.404Z,15.37
2023-05-09T02:10:50.487Z,17.40
2023-05-09T02:13:17.079Z,22.10
2023-05-09T02:15:44.305Z,16.73
2023-05-09T02:18:11.008Z,18.20
2023-05-09T02:20:37.480Z,19.17
2023-05-09T02:23:04.548Z,19.07
2023-05-09T02:25:32.174Z,19.70
2023-05-09T02:28:00.031Z,19.90
2023-05-09T02:30:27.593Z,17.70
2023-05-09T02:32:59.809Z,16.00
2023-05-09T02:35:27.809Z,19.10
2023-05-09T02:37:55.176Z,17.03
2023-05-09T02:40:22.619Z,18.47
2023-05-09T02:42:49.182Z,17.13
2023-05-09T02:45:15.952Z,18.73
2023-05-09T02:47:42.846Z,19.30
2023-05-09T02:50:09.590Z,18.27
2023-05-09T02:52:37.929Z,16.63
2023-05-09T02:55:05.079Z,21.37
2023-05-09T02:57:35.147Z,16.90
2023-05-09T03:00:01.652Z,19.67
2023-05-09T03:02:29.211Z,19.57
2023-05-09T03:04:56.505Z,20.40
2023-05-09T03:07:22.936Z,16.57
2023-05-09T03:09:49.407Z,16.97
2023-05-09T03:12:16.095Z,19.50
2023-05-09T03:14:42.539Z,18.07
2023-05-09T03:17:09.523Z,19.53
2023-05-09T03:19:36.700Z,18.53
2023-05-09T03:22:03.286Z,17.53
2023-05-09T03:24:33.640Z,21.10
2023-05-09T03:27:00.303Z,19.43
2023-05-09T03:29:27.599Z,29.37
2023-05-09T03:31:54.095Z,24.83
2023-05-09T03:34:20.635Z,21.17
2023-05-09T03:36:47.128Z,20.83
2023-05-09T03:39:14.635Z,22.57
2023-05-09T03:41:44.361Z,22.13
2023-05-09T03:44:12.724Z,25.63
2023-05-09T03:46:39.238Z,26.13
2023-05-09T03:49:05.893Z,23.27
2023-05-09T03:51:32.635Z,26.93
2023-05-09T03:54:01.290Z,27.63
2023-05-09T03:56:28.552Z,24.30
2023-05-09T03:58:55.064Z,25.97
2023-05-09T04:01:22.066Z,26.73
2023-05-09T04:03:48.803Z,30.67
2023-05-09T04:06:15.922Z,28.63
2023-05-09T04:08:44.358Z,28.77
2023-05-09T04:11:10.998Z,29.40
2023-05-09T04:13:40.356Z,31.87
2023-05-09T04:16:19.917Z,28.87
2023-05-09T04:18:46.671Z,28.80
2023-05-09T04:21:13.715Z,29.30
2023-05-09T04:23:43.543Z,28.40
2023-05-09T04:26:12.439Z,28.37
2023-05-09T04:28:39.337Z,27.63
2023-05-09T04:31:07.036Z,27.60
2023-05-09T04:33:36.418Z,27.77
2023-05-09T04:36:04.412Z,18.63
2023-05-09T04:38:31.429Z,20.13
2023-05-09T04:40:58.985Z,14.50
2023-05-09T04:43:27.930Z,18.77
2023-05-09T04:45:54.464Z,17.53
2023-05-09T04:48:21.015Z,20.00
2023-05-09T04:50:49.584Z,13.80
2023-05-09T04:53:16.033Z,17.67
2023-05-09T04:55:43.853Z,16.67
2023-05-09T04:58:11.344Z,15.20
2023-05-09T05:00:38.212Z,15.13
2023-05-09T05:03:07.069Z,14.43
2023-05-09T05:05:36.745Z,15.57
2023-05-09T05:08:04.172Z,14.80
2023-05-09T05:10:35.484Z,14.93
2023-05-09T05:13:06.878Z,13.03
2023-05-09T05:15:35.072Z,16.33
2023-05-09T05:18:02.284Z,12.60
2023-05-09T05:20:33.157Z,17.43
2023-05-09T05:23:00.453Z,11.60
2023-05-09T05:25:27.231Z,16.13
2023-05-09T05:27:55.289Z,15.10
2023-05-09T05:30:21.985Z,15.50
2023-05-09T05:32:49.189Z,12.40
2023-05-09T05:35:19.398Z,16.20
2023-05-09T05:37:47.637Z,16.60
2023-05-09T05:40:15.826Z,14.93
2023-05-09T05:42:46.563Z,11.97
2023-05-09T05:45:13.267Z,15.53
2023-05-09T05:47:43.688Z,17.37
2023-05-09T05:50:12.096Z,15.50
2023-05-09T05:52:39.726Z,14.17
2023-05-09T05:55:08.069Z,14.40
2023-05-09T05:57:35.201Z,13.93
2023-05-09T06:00:01.808Z,12.93
2023-05-09T06:02:28.401Z,12.67
2023-05-09T06:04:56.066Z,16.10
2023-05-09T06:07:23.584Z,13.17
2023-05-09T06:09:52.053Z,15.37
2023-05-09T06:12:18.497Z,13.60
2023-05-09T06:14:45.106Z,16.00
2023-05-09T06:17:12.823Z,17.90
2023-05-09T06:19:39.332Z,13.40
2023-05-09T06:22:05.796Z,15.10
2023-05-09T06:24:36.219Z,12.60
2023-05-09T06:27:04.307Z,14.60
2023-05-09T06:29:30.983Z,14.50
2023-05-09T06:31:57.623Z,16.10
2023-05-09T06:34:24.131Z,17.27
2023-05-09T06:36:50.776Z,13.30
2023-05-09T06:39:18.392Z,17.67
2023-05-09T06:41:45.019Z,14.10
2023-05-09T06:44:11.456Z,12.93
2023-05-09T06:46:38.034Z,13.40
2023-05-09T06:49:06.002Z,15.00
2023-05-09T06:51:32.629Z,12.93
2023-05-09T06:53:59.115Z,16.67
2023-05-09T06:56:26.878Z,18.43
2023-05-09T06:58:53.833Z,18.40
2023-05-09T07:01:20.398Z,13.70
2023-05-09T07:03:47.507Z,15.03
2023-05-09T07:06:14.080Z,15.83
2023-05-09T07:08:40.528Z,20.30
2023-05-09T07:11:07.239Z,16.43
2023-05-09T07:13:33.718Z,15.13
2023-05-09T07:16:00.310Z,12.80
2023-05-09T07:18:26.841Z,14.80
2023-05-09T07:20:53.394Z,13.23
2023-05-09T07:23:19.900Z,14.57
2023-05-09T07:25:46.525Z,20.10
2023-05-09T07:28:13.177Z,16.63
2023-05-09T07:30:39.639Z,15.50
2023-05-09T07:33:06.970Z,15.17
2023-05-09T07:35:33.455Z,13.93
2023-05-09T07:38:00.025Z,16.90
2023-05-09T07:40:26.650Z,14.07
2023-05-09T07:42:55.170Z,16.00
2023-05-09T07:45:23.775Z,14.53
2023-05-09T07:47:50.678Z,14.47
2023-05-09T07:50:17.427Z,16.57
2023-05-09T07:52:43.902Z,16.53
2023-05-09T07:55:12.224Z,14.53
2023-05-09T07:57:40.059Z,14.57
2023-05-09T08:00:08.898Z,22.03
2023-05-09T08:02:39.960Z,15.30
2023-05-09T08:05:08.032Z,15.20
2023-05-09T08:07:34.833Z,17.87
2023-05-09T08:10:01.412Z,14.43
2023-05-09T08:12:27.858Z,15.33
2023-05-09T08:14:54.548Z,14.97
2023-05-09T08:17:21.101Z,13.30
2023-05-09T08:19:47.575Z,12.07
2023-05-09T08:22:18.733Z,19.10
2023-05-09T08:24:46.384Z,14.17
2023-05-09T08:27:13.975Z,14.63
2023-05-09T08:29:41.191Z,15.57
2023-05-09T08:32:08.105Z,15.17
2023-05-09T08:34:34.960Z,24.00
2023-05-09T08:37:02.329Z,19.80
2023-05-09T08:39:28.826Z,15.37
2023-05-09T08:41:58.797Z,20.13
2023-05-09T08:44:26.272Z,13.40
2023-05-09T08:46:56.889Z,17.07
2023-05-09T08:49:24.135Z,15.57
2023-05-09T08:51:51.054Z,16.50
2023-05-09T08:54:20.608Z,17.57
2023-05-09T08:56:48.011Z,15.87
2023-05-09T08:59:16.537Z,19.80
2023-05-09T09:01:43.791Z,13.90
2023-05-09T09:04:11.944Z,15.10
2023-05-09T09:06:39.948Z,15.93
2023-05-09T09:09:08.788Z,14.63
2023-05-09T09:11:36.804Z,15.93
2023-05-09T09:14:13.162Z,18.97
2023-05-09T09:16:41.653Z,18.63
2023-05-09T09:19:13.051Z,16.77
2023-05-09T09:21:42.691Z,12.83
2023-05-09T09:24:13.083Z,12.00
2023-05-09T09:26:46.503Z,13.70
2023-05-09T09:29:13.442Z,16.83
2023-05-09T09:31:44.638Z,13.33
2023-05-09T09:34:14.654Z,16.70
2023-05-09T09:36:41.241Z,12.30
2023-05-09T09:39:09.115Z,14.30
2023-05-09T09:41:38.001Z,17.00
2023-05-09T09:44:15.732Z,28.33
2023-05-09T09:46:53.008Z,15.90
2023-05-09T09:49:24.477Z,17.03
2023-05-09T09:51:53.146Z,13.73
2023-05-09T09:54:19.907Z,11.33
2023-05-09T09:56:54.995Z,9.97
2023-05-09T09:59:26.520Z,14.13
2023-05-09T10:02:07.567Z,11.90
2023-05-09T10:04:39.251Z,12.93
2023-05-09T10:07:08.383Z,15.70
2023-05-09T10:09:35.762Z,14.23
2023-05-09T10:12:06.699Z,24.53
2023-05-09T10:14:35.427Z,15.60
2023-05-09T10:17:04.791Z,14.57
2023-05-09T10:19:32.938Z,14.70
2023-05-09T10:22:04.915Z,15.00
2023-05-09T10:24:51.111Z,15.10
2023-05-09T10:27:23.013Z,19.33
2023-05-09T10:29:57.302Z,15.80
2023-05-09T10:32:29.087Z,11.23
2023-05-09T10:35:06.933Z,11.57
2023-05-09T10:37:33.933Z,13.60
2023-05-09T10:40:04.878Z,19.97
2023-05-09T10:42:31.903Z,13.27
2023-05-09T10:44:58.409Z,13.07
2023-05-09T10:47:29.698Z,19.50
2023-05-09T10:49:57.507Z,13.17
2023-05-09T10:52:24.055Z,12.87
2023-05-09T10:55:05.093Z,13.53
2023-05-09T10:57:32.667Z,18.87
2023-05-09T11:00:00.473Z,13.10
2023-05-09T11:02:30.963Z,11.13
2023-05-09T11:05:17.660Z,20.33
2023-05-09T11:07:44.665Z,13.30
2023-05-09T11:10:16.704Z,12.80
2023-05-09T11:12:59.623Z,14.67
2023-05-09T11:15:27.853Z,14.70
2023-05-09T11:18:08.327Z,17.73
2023-05-09T11:20:36.042Z,10.60
2023-05-09T11:23:06.774Z,13.30
2023-05-09T11:25:33.377Z,11.93
2023-05-09T11:28:03.016Z,12.80
2023-05-09T11:30:40.726Z,12.70
2023-05-09T11:33:24.724Z,13.83
2023-05-09T11:36:31.735Z,12.33
2023-05-09T11:39:06.156Z,21.43
2023-05-09T11:41:39.804Z,15.20
2023-05-09T11:44:21.296Z,15.37
2023-05-09T11:46:49.121Z,13.50
2023-05-09T11:49:15.868Z,13.60
2023-05-09T11:51:42.661Z,14.40
2023-05-09T11:54:11.358Z,13.43
2023-05-09T11:56:42.008Z,21.20
2023-05-09T11:59:08.688Z,16.70
2023-05-09T12:01:35.922Z,15.57
2023-05-09T12:04:02.897Z,14.70
2023-05-09T12:06:30.000Z,15.23
2023-05-09T12:08:59.337Z,17.93
2023-05-09T12:11:25.896Z,19.67
2023-05-09T12:13:52.922Z,19.53
2023-05-09T12:16:21.220Z,16.30
2023-05-09T12:18:49.952Z,17.33
2023-05-09T12:21:22.868Z,16.73
2023-05-09T12:23:51.768Z,14.80
2023-05-09T12:26:22.037Z,16.67
2023-05-09T12:28:48.927Z,17.80
2023-05-09T12:31:17.021Z,16.70
2023-05-09T12:33:43.519Z,13.03
2023-05-09T12:36:11.468Z,14.80
2023-05-09T12:38:38.752Z,14.70
2023-05-09T12:41:22.335Z,17.10
2023-05-09T12:43:57.081Z,15.67
2023-05-09T12:46:24.143Z,14.03
2023-05-09T12:48:51.681Z,14.57
2023-05-09T12:51:20.398Z,16.20
2023-05-09T12:53:47.128Z,14.57
2023-05-09T12:56:18.425Z,14.37
2023-05-09T12:58:55.067Z,15.57
2023-05-09T13:01:27.387Z,15.20
2023-05-09T13:04:02.739Z,15.07
2023-05-09T13:06:29.347Z,25.53
2023-05-09T13:09:01.101Z,16.30
2023-05-09T13:11:28.682Z,14.93
2023-05-09T13:13:55.675Z,14.20
2023-05-09T13:16:22.621Z,15.27
2023-05-09T13:18:49.249Z,16.43
2023-05-09T13:21:15.914Z,17.47
2023-05-09T13:23:42.408Z,17.50
2023-05-09T13:26:10.385Z,21.10
2023-05-09T13:28:36.958Z,15.77
2023-05-09T13:31:04.052Z,16.27
2023-05-09T13:33:30.782Z,20.13
2023-05-09T13:35:57.331Z,17.13
2023-05-09T13:38:24.186Z,17.67
2023-05-09T13:40:50.677Z,16.57
2023-05-09T13:43:17.151Z,16.77
2023-05-09T13:45:43.616Z,18.23
2023-05-09T13:48:11.677Z,14.37
2023-05-09T13:50:38.222Z,15.80
2023-05-09T13:53:04.866Z,17.80
2023-05-09T13:55:31.664Z,16.33
2023-05-09T13:57:58.266Z,17.83
2023-05-09T14:00:26.517Z,18.07
2023-05-09T14:02:53.110Z,17.30
2023-05-09T14:05:19.784Z,14.83
2023-05-09T14:07:46.422Z,18.20
2023-05-09T14:10:12.998Z,15.23
2023-05-09T14:12:40.717Z,11.80
2023-05-09T14:15:08.271Z,12.90
2023-05-09T14:17:34.891Z,14.13
2023-05-09T14:20:02.019Z,12.83
2023-05-09T14:22:28.552Z,11.50
2023-05-09T14:24:58.272Z,12.70
2023-05-09T14:27:25.119Z,13.83
2023-05-09T14:29:51.951Z,13.73
2023-05-09T14:32:18.458Z,10.83
2023-05-09T14:34:45.642Z,13.97
2023-05-09T14:37:14.815Z,16.00
2023-05-09T14:39:42.503Z,12.77
2023-05-09T14:42:11.374Z,10.70
2023-05-09T14:44:38.659Z,16.57
2023-05-09T14:47:05.339Z,14.97
2023-05-09T14:49:32.441Z,13.33
2023-05-09T14:51:59.199Z,11.97
2023-05-09T14:54:26.104Z,11.97
2023-05-09T14:56:52.690Z,12.10
2023-05-09T14:59:19.251Z,10.37
2023-05-09T15:01:46.201Z,12.13
2023-05-09T15:04:12.868Z,12.50
2023-05-09T15:06:39.602Z,13.90
2023-05-09T15:09:06.416Z,13.27
2023-05-09T15:11:43.716Z,10.80
2023-05-09T15:14:14.856Z,8.93
2023-05-09T15:16:41.514Z,9.90
2023-05-09T15:19:08.287Z,9.77
2023-05-09T15:21:35.049Z,10.53
2023-05-09T15:24:02.420Z,10.60
2023-05-09T15:26:29.388Z,12.73
2023-05-09T15:28:55.908Z,8.80
2023-05-09T15:31:24.032Z,8.73
2023-05-09T15:33:50.693Z,9.63
2023-05-09T15:36:17.211Z,12.67
2023-05-09T15:38:46.205Z,8.60
2023-05-09T15:41:12.848Z,8.00
2023-05-09T15:43:39.408Z,7.43
2023-05-09T15:46:06.010Z,9.00
2023-05-09T15:48:32.636Z,8.70
2023-05-09T15:50:59.111Z,8.30
2023-05-09T15:53:27.515Z,11.23
2023-05-09T15:55:54.101Z,10.20
2023-05-09T15:58:20.678Z,13.33
2023-05-09T16:00:47.636Z,9.57
2023-05-09T16:03:14.158Z,8.07
2023-05-09T16:05:41.078Z,11.43
2023-05-09T16:08:07.683Z,10.80
2023-05-09T16:10:34.233Z,9.17
2023-05-09T16:13:00.915Z,9.77
2023-05-09T16:15:27.578Z,10.50
2023-05-09T16:17:54.185Z,8.70
2023-05-09T16:20:20.802Z,9.30
2023-05-09T16:22:47.432Z,7.30
2023-05-09T16:25:14.066Z,9.40
2023-05-09T16:27:40.702Z,10.20
2023-05-09T16:30:07.871Z,14.60
2023-05-09T16:32:34.428Z,9.57
2023-05-09T16:35:00.945Z,12.73
2023-05-09T16:37:29.737Z,9.03
2023-05-09T16:39:56.471Z,8.50
2023-05-09T16:42:23.110Z,11.40
2023-05-09T16:44:49.595Z,10.97
2023-05-09T16:47:16.130Z,9.83
2023-05-09T16:49:42.680Z,9.00
2023-05-09T16:52:09.471Z,10.70
2023-05-09T16:54:35.974Z,12.40
2023-05-09T16:57:03.281Z,12.60
2023-05-09T16:59:29.780Z,6.60
2023-05-09T17:01:57.616Z,9.10
2023-05-09T17:04:25.283Z,7.97
2023-05-09T17:06:53.301Z,12.33
2023-05-09T17:09:19.833Z,10.57
2023-05-09T17:11:46.444Z,9.03
2023-05-09T17:14:12.990Z,8.10
2023-05-09T17:16:39.564Z,7.80
2023-05-09T17:19:06.244Z,8.53
2023-05-09T17:21:32.897Z,7.30
2023-05-09T17:23:59.365Z,10.37
2023-05-09T17:26:25.989Z,8.87
2023-05-09T17:28:52.539Z,8.07
2023-05-09T17:31:19.167Z,10.47
2023-05-09T17:33:45.795Z,7.97
2023-05-09T17:36:12.294Z,12.27
2023-05-09T17:38:38.815Z,10.53
2023-05-09T17:41:05.784Z,8.97
2023-05-09T17:43:32.430Z,11.10
2023-05-09T17:45:59.164Z,12.70
2023-05-09T17:48:26.247Z,13.07
2023-05-09T17:50:52.736Z,9.20
2023-05-09T17:53:19.285Z,9.23
2023-05-09T17:55:45.805Z,10.40
2023-05-09T17:58:12.408Z,8.53
2023-05-09T18:00:38.921Z,13.40
2023-05-09T18:03:07.367Z,10.57
2023-05-09T18:05:34.052Z,9.33
2023-05-09T18:08:01.301Z,14.83
2023-05-09T18:10:28.761Z,11.10
2023-05-09T18:12:55.426Z,10.77
2023-05-09T18:15:22.008Z,7.43
2023-05-09T18:17:49.293Z,13.00
2023-05-09T18:20:16.745Z,11.63
2023-05-09T18:22:43.396Z,11.07
2023-05-09T18:25:10.365Z,8.10
2023-05-09T18:27:36.896Z,10.33
2023-05-09T18:30:03.769Z,10.67
2023-05-09T18:32:30.290Z,13.80
2023-05-09T18:34:56.856Z,11.07
2023-05-09T18:37:24.684Z,9.30
2023-05-09T18:39:51.446Z,8.80
2023-05-09T18:42:18.193Z,10.20
2023-05-09T18:44:44.830Z,7.47
2023-05-09T18:47:11.951Z,9.30
2023-05-09T18:49:38.890Z,12.73
2023-05-09T18:52:05.429Z,11.10
2023-05-09T18:54:31.960Z,7.00
2023-05-09T18:56:58.495Z,9.40
2023-05-09T18:59:25.025Z,10.47
2023-05-09T19:01:51.849Z,8.63
2023-05-09T19:04:19.669Z,7.13
2023-05-09T19:06:46.973Z,6.83
2023-05-09T19:09:13.678Z,14.80
2023-05-09T19:11:40.216Z,12.20
2023-05-09T19:14:07.114Z,7.40
2023-05-09T19:16:33.713Z,9.37
2023-05-09T19:19:00.999Z,6.20
2023-05-09T19:21:28.348Z,6.90
2023-05-09T19:23:54.957Z,5.43
2023-05-09T19:26:22.059Z,11.23
2023-05-09T19:28:48.668Z,6.20
2023-05-09T19:31:15.633Z,7.70
2023-05-09T19:33:45.505Z,7.07
2023-05-09T19:36:12.797Z,6.50
2023-05-09T19:38:39.491Z,9.47
2023-05-09T19:41:05.997Z,8.90
2023-05-09T19:43:32.562Z,9.73
2023-05-09T19:45:59.939Z,6.33
2023-05-09T19:48:26.653Z,11.23
2023-05-09T19:50:57.547Z,10.60
2023-05-09T19:53:24.673Z,12.43
2023-05-09T19:55:51.704Z,8.30
2023-05-09T19:58:18.403Z,7.30
2023-05-09T20:00:45.301Z,7.43
2023-05-09T20:03:12.046Z,7.63
2023-05-09T20:05:38.602Z,7.27
2023-05-09T20:08:05.184Z,7.97
2023-05-09T20:10:32.968Z,8.00
2023-05-09T20:13:00.885Z,9.90
2023-05-09T20:15:27.899Z,10.90
2023-05-09T20:17:54.737Z,9.17
2023-05-09T20:20:21.475Z,7.37
2023-05-09T20:22:48.124Z,7.93
2023-05-09T20:25:15.301Z,9.70
2023-05-09T20:27:42.066Z,7.57
2023-05-09T20:30:09.022Z,8.90
2023-05-09T20:32:35.527Z,6.60
2023-05-09T20:35:02.333Z,7.57
2023-05-09T20:37:28.829Z,6.40
2023-05-09T20:39:55.623Z,9.60
2023-05-09T20:42:23.230Z,6.20
2023-05-09T20:44:51.480Z,10.57
2023-05-09T20:47:18.072Z,8.30
2023-05-09T20:49:44.528Z,9.37
2023-05-09T20:52:11.557Z,10.30
2023-05-09T20:54:38.560Z,8.30
2023-05-09T20:57:05.164Z,9.50
2023-05-09T20:59:31.670Z,6.60
2023-05-09T21:01:58.213Z,8.20
2023-05-09T21:04:24.971Z,11.60
2023-05-09T21:06:51.556Z,11.10
2023-05-09T21:09:18.495Z,8.57
2023-05-09T21:11:45.739Z,8.20
2023-05-09T21:14:12.225Z,8.70
2023-05-09T21:16:38.774Z,7.17
2023-05-09T21:19:06.592Z,9.43
2023-05-09T21:21:33.178Z,8.03
2023-05-09T21:24:04.299Z,7.23
2023-05-09T21:26:30.862Z,8.50
2023-05-09T21:28:57.376Z,5.90
2023-05-09T21:31:24.020Z,3.20
2023-05-09T21:33:50.789Z,3.13
2023-05-09T21:36:17.328Z,2.50
2023-05-09T21:38:43.801Z,2.00
2023-05-09T21:41:10.484Z,2.47
2023-05-09T21:43:37.713Z,3.37
2023-05-09T21:46:05.509Z,2.40
2023-05-09T21:48:32.227Z,2.87
2023-05-09T21:51:02.975Z,2.93
2023-05-09T21:53:29.595Z,2.33
2023-05-09T21:55:56.091Z,3.00
2023-05-09T21:58:22.552Z,2.73
2023-05-09T22:00:49.099Z,2.00
2023-05-09T22:03:15.824Z,1.33
2023-05-09T22:05:42.586Z,1.63
2023-05-09T22:08:09.247Z,4.63
2023-05-09T22:10:37.425Z,1.00
2023-05-09T22:13:03.984Z,2.73
2023-05-09T22:15:30.603Z,1.10
2023-05-09T22:17:57.194Z,1.57
2023-05-09T22:20:23.964Z,1.17
2023-05-09T22:22:50.529Z,3.30
2023-05-09T22:25:17.138Z,1.70
2023-05-09T22:27:43.672Z,2.60
2023-05-09T22:30:12.349Z,1.20
2023-05-09T22:32:39.619Z,1.37
2023-05-09T22:35:06.876Z,5.47
2023-05-09T22:37:33.454Z,1.23
2023-05-09T22:40:01.457Z,6.50
2023-05-09T22:42:29.363Z,1.07
2023-05-09T22:44:56.155Z,2.60
2023-05-09T22:47:22.781Z,2.43
2023-05-09T22:49:50.362Z,3.97
2023-05-09T22:52:17.125Z,2.20
2023-05-09T22:54:43.790Z,5.80
2023-05-09T22:57:10.732Z,5.23
2023-05-09T22:59:37.349Z,2.50
2023-05-09T23:02:04.804Z,1.30
2023-05-09T23:04:32.563Z,2.67
2023-05-09T23:06:59.098Z,1.37
2023-05-09T23:09:25.818Z,2.13
2023-05-09T23:11:52.323Z,1.57
2023-05-09T23:14:18.892Z,3.57
2023-05-09T23:16:45.402Z,1.40
2023-05-09T23:19:11.942Z,1.33
2023-05-09T23:21:38.541Z,1.37
2023-05-09T23:24:05.246Z,2.23
2023-05-09T23:26:32.287Z,2.13
2023-05-09T23:28:58.761Z,2.90
2023-05-09T23:31:25.438Z,1.43
2023-05-09T23:33:52.328Z,1.93
2023-05-09T23:36:18.917Z,1.00
2023-05-09T23:38:45.417Z,1.57
2023-05-09T23:41:12.824Z,1.20
2023-05-09T23:43:39.477Z,1.80
2023-05-09T23:46:06.044Z,0.93
2023-05-09T23:48:32.632Z,2.03
2023-05-09T23:50:59.095Z,1.27
2023-05-09T23:53:26.122Z,2.27
2023-05-09T23:55:52.621Z,1.73
2023-05-09T23:58:19.076Z,2.10
